createdAt,value
2019-02-17T00:00:35.696Z,7.64
2019-02-17T00:03:05.745Z,7.60
2019-02-17T00:05:35.599Z,7.58
2019-02-17T00:08:05.400Z,7.64
2019-02-17T00:10:35.183Z,7.66
2019-02-17T00:13:04.965Z,7.67
2019-02-17T00:15:34.828Z,7.66
2019-02-17T00:18:04.814Z,7.62
2019-02-17T00:20:34.494Z,7.64
2019-02-17T00:23:04.196Z,7.64
2019-02-17T00:25:33.877Z,7.71
2019-02-17T00:28:03.685Z,7.71
2019-02-17T00:30:33.484Z,7.76
2019-02-17T00:33:03.149Z,7.78
2019-02-17T00:35:33.100Z,7.79
2019-02-17T00:38:02.842Z,7.81
2019-02-17T00:40:32.542Z,7.83
2019-02-17T00:43:02.221Z,7.83
2019-02-17T00:45:31.989Z,7.81
2019-02-17T00:48:01.638Z,7.82
2019-02-17T00:50:31.349Z,7.83
2019-02-17T00:53:01.014Z,7.80
2019-02-17T00:55:30.788Z,7.76
2019-02-17T00:58:00.437Z,7.74
2019-02-17T01:00:30.225Z,7.74
2019-02-17T01:02:59.889Z,7.67
2019-02-17T01:05:29.657Z,7.62
2019-02-17T01:07:59.333Z,7.60
2019-02-17T01:10:29.232Z,7.54
2019-02-17T01:12:58.996Z,7.49
2019-02-17T01:15:28.742Z,7.46
2019-02-17T01:17:58.686Z,7.49
2019-02-17T01:20:28.487Z,7.49
2019-02-17T01:22:58.329Z,7.50
2019-02-17T01:25:27.999Z,7.50
2019-02-17T01:27:57.706Z,7.46
2019-02-17T01:30:27.439Z,7.40
2019-02-17T01:32:57.119Z,7.38
2019-02-17T01:35:26.782Z,7.38
2019-02-17T01:37:58.257Z,7.41
2019-02-17T01:40:28.279Z,7.41
2019-02-17T01:42:58.108Z,7.33
2019-02-17T01:45:27.886Z,7.36
2019-02-17T01:47:57.557Z,7.34
2019-02-17T01:50:27.555Z,7.35
2019-02-17T01:52:57.210Z,7.37
2019-02-17T01:55:26.915Z,7.35
2019-02-17T01:57:56.595Z,7.31
2019-02-17T02:00:26.404Z,7.33
2019-02-17T02:02:56.173Z,7.35
2019-02-17T02:05:26.143Z,7.35
2019-02-17T02:07:55.809Z,7.34
2019-02-17T02:10:25.688Z,7.30
2019-02-17T02:12:55.461Z,7.28
2019-02-17T02:15:25.140Z,7.29
2019-02-17T02:17:54.908Z,7.26
2019-02-17T02:20:25.569Z,7.25
2019-02-17T02:22:55.227Z,7.23
2019-02-17T02:25:24.977Z,7.13
2019-02-17T02:27:54.653Z,7.08
2019-02-17T02:30:24.346Z,7.10
2019-02-17T02:32:54.009Z,7.16
2019-02-17T02:35:23.697Z,7.18
2019-02-17T02:37:53.344Z,7.23
2019-02-17T02:40:23.020Z,7.23
2019-02-17T02:42:52.710Z,7.26
2019-02-17T02:45:22.388Z,7.23
2019-02-17T02:47:52.087Z,7.22
2019-02-17T02:50:21.780Z,7.20
2019-02-17T02:52:51.522Z,7.16
2019-02-17T02:55:21.224Z,7.10
2019-02-17T02:57:50.902Z,7.08
2019-02-17T03:00:20.638Z,7.01
2019-02-17T03:02:50.316Z,7.00
2019-02-17T03:05:20.047Z,6.97
2019-02-17T03:07:49.777Z,6.93
2019-02-17T03:10:19.486Z,6.89
2019-02-17T03:12:49.283Z,6.91
2019-02-17T03:15:19.111Z,6.94
2019-02-17T03:17:48.796Z,6.98
2019-02-17T03:20:18.540Z,6.92
2019-02-17T03:22:48.211Z,6.92
2019-02-17T03:25:17.909Z,6.91
2019-02-17T03:27:47.584Z,6.89
2019-02-17T03:30:17.279Z,6.89
2019-02-17T03:32:46.960Z,6.90
2019-02-17T03:35:16.679Z,6.91
2019-02-17T03:37:46.338Z,6.93
2019-02-17T03:40:16.042Z,6.94
2019-02-17T03:42:45.720Z,6.95
2019-02-17T03:45:15.491Z,6.95
2019-02-17T03:47:45.269Z,6.97
2019-02-17T03:50:15.078Z,6.93
2019-02-17T03:52:44.761Z,6.92
2019-02-17T03:55:14.483Z,6.97
2019-02-17T03:57:44.217Z,6.95
2019-02-17T04:00:16.927Z,6.94
2019-02-17T04:02:45.452Z,6.93
2019-02-17T04:05:15.200Z,6.92
2019-02-17T04:07:44.901Z,6.86
2019-02-17T04:10:14.609Z,6.74
2019-02-17T04:12:44.372Z,6.72
2019-02-17T04:15:14.208Z,6.70
2019-02-17T04:17:43.982Z,6.68
2019-02-17T04:20:13.803Z,6.67
2019-02-17T04:22:43.507Z,6.64
2019-02-17T04:25:13.222Z,6.64
2019-02-17T04:27:42.931Z,6.66
2019-02-17T04:30:12.884Z,6.64
2019-02-17T04:32:42.791Z,6.61
2019-02-17T04:35:12.501Z,6.61
2019-02-17T04:37:42.179Z,6.59
2019-02-17T04:40:12.044Z,6.58
2019-02-17T04:42:41.726Z,6.55
2019-02-17T04:45:11.501Z,6.54
2019-02-17T04:47:41.170Z,6.53
2019-02-17T04:50:14.215Z,6.53
2019-02-17T04:52:43.948Z,6.54
2019-02-17T04:55:13.787Z,6.54
2019-02-17T04:57:43.446Z,6.51
2019-02-17T05:00:13.296Z,6.49
2019-02-17T05:02:43.036Z,6.48
2019-02-17T05:05:12.808Z,6.47
2019-02-17T05:07:42.514Z,6.41
2019-02-17T05:10:12.330Z,6.39
2019-02-17T05:12:42.004Z,6.41
2019-02-17T05:15:11.999Z,6.46
2019-02-17T05:17:41.643Z,6.46
2019-02-17T05:20:11.658Z,6.50
2019-02-17T05:22:41.331Z,6.48
2019-02-17T05:25:11.162Z,6.46
2019-02-17T05:27:40.852Z,6.52
2019-02-17T05:30:12.254Z,6.45
2019-02-17T05:32:41.949Z,6.42
2019-02-17T05:35:11.751Z,6.45
2019-02-17T05:37:41.427Z,6.45
2019-02-17T05:40:11.235Z,6.49
2019-02-17T05:42:41.029Z,6.49
2019-02-17T05:45:10.913Z,6.54
2019-02-17T05:47:40.699Z,6.60
2019-02-17T05:50:10.478Z,6.59
2019-02-17T05:52:40.197Z,6.64
2019-02-17T05:55:10.092Z,6.66
2019-02-17T05:57:39.985Z,6.67
2019-02-17T06:00:12.903Z,6.68
2019-02-17T06:02:42.664Z,6.71
2019-02-17T06:05:12.418Z,6.74
2019-02-17T06:07:42.125Z,6.73
2019-02-17T06:10:11.946Z,6.70
2019-02-17T06:12:41.649Z,6.64
2019-02-17T06:15:11.481Z,6.60
2019-02-17T06:17:41.215Z,6.61
2019-02-17T06:20:12.172Z,6.65
2019-02-17T06:22:41.847Z,6.69
2019-02-17T06:25:11.740Z,6.70
2019-02-17T06:27:41.394Z,6.72
2019-02-17T06:30:11.627Z,6.70
2019-02-17T06:35:17.479Z,6.68
2019-02-17T06:37:47.164Z,6.71
2019-02-17T06:40:17.034Z,6.75
2019-02-17T06:42:46.813Z,6.75
2019-02-17T06:45:16.539Z,6.76
2019-02-17T06:47:46.194Z,6.78
2019-02-17T06:50:15.922Z,6.80
2019-02-17T06:52:45.648Z,6.76
2019-02-17T06:55:20.588Z,6.78
2019-02-17T06:58:29.783Z,6.80
2019-02-17T07:00:59.646Z,6.83
2019-02-17T07:03:29.314Z,6.85
2019-02-17T07:06:00.823Z,6.90
2019-02-17T07:08:30.597Z,6.90
2019-02-17T07:11:00.242Z,6.96
2019-02-17T07:13:30.029Z,6.98
2019-02-17T07:15:59.989Z,7.06
2019-02-17T07:18:29.772Z,7.07
2019-02-17T07:20:59.520Z,7.11
2019-02-17T07:23:29.520Z,7.14
2019-02-17T07:25:59.238Z,7.19
2019-02-17T07:28:30.040Z,7.22
2019-02-17T07:30:59.780Z,7.26
2019-02-17T07:33:29.552Z,7.32
2019-02-17T07:35:59.442Z,7.34
2019-02-17T07:38:29.126Z,7.38
2019-02-17T07:40:58.879Z,7.45
2019-02-17T07:43:28.547Z,7.53
2019-02-17T07:45:58.301Z,7.61
2019-02-17T07:48:28.429Z,7.69
2019-02-17T07:50:58.231Z,7.76
2019-02-17T07:53:28.003Z,7.88
2019-02-17T07:55:57.741Z,7.97
2019-02-17T07:58:27.432Z,8.08
2019-02-17T08:00:57.144Z,8.14
2019-02-17T08:03:27.048Z,8.24
2019-02-17T08:05:56.820Z,8.30
2019-02-17T08:08:26.471Z,8.41
2019-02-17T08:11:03.678Z,8.52
2019-02-17T08:13:27.616Z,8.64
2019-02-17T08:15:57.334Z,8.77
2019-02-17T08:18:27.071Z,8.88
2019-02-17T08:20:56.831Z,9.00
2019-02-17T08:23:26.535Z,9.12
2019-02-17T08:25:56.263Z,9.24
2019-02-17T08:28:25.996Z,9.39
2019-02-17T08:30:55.771Z,9.53
2019-02-17T08:33:25.494Z,9.59
2019-02-17T08:35:55.180Z,9.69
2019-02-17T08:38:24.997Z,9.72
2019-02-17T08:40:54.852Z,9.78
2019-02-17T08:43:24.605Z,9.88
2019-02-17T08:45:55.212Z,9.91
2019-02-17T08:48:25.011Z,10.00
2019-02-17T08:50:54.864Z,10.02
2019-02-17T08:53:24.606Z,10.09
2019-02-17T08:55:54.412Z,10.17
2019-02-17T08:58:24.149Z,10.19
2019-02-17T09:00:54.005Z,10.22
2019-02-17T09:03:23.741Z,10.28
2019-02-17T09:05:53.485Z,10.36
2019-02-17T09:08:23.236Z,10.46
2019-02-17T09:10:52.982Z,10.50
2019-02-17T09:13:22.659Z,10.56
2019-02-17T09:15:52.379Z,10.63
2019-02-17T09:18:22.201Z,10.67
2019-02-17T09:20:51.960Z,10.71
2019-02-17T09:23:21.708Z,10.78
2019-02-17T09:25:51.375Z,10.84
2019-02-17T09:28:21.041Z,10.87
2019-02-17T09:30:50.734Z,10.93
2019-02-17T09:33:20.810Z,11.04
2019-02-17T09:35:50.577Z,11.09
2019-02-17T09:38:20.339Z,11.14
2019-02-17T09:40:50.112Z,11.23
2019-02-17T09:43:20.161Z,11.32
2019-02-17T09:45:49.969Z,11.39
2019-02-17T09:48:19.806Z,11.54
2019-02-17T09:50:49.712Z,11.63
2019-02-17T09:53:19.520Z,11.65
2019-02-17T09:55:49.474Z,11.74
2019-02-17T09:58:19.269Z,11.91
2019-02-17T10:00:49.184Z,11.94
2019-02-17T10:03:18.910Z,11.93
2019-02-17T10:05:48.685Z,12.06
2019-02-17T10:08:18.451Z,12.10
2019-02-17T10:10:48.127Z,12.15
2019-02-17T10:13:17.856Z,12.17
2019-02-17T10:15:47.585Z,12.29
2019-02-17T10:18:17.339Z,12.24
2019-02-17T10:20:47.050Z,12.25
2019-02-17T10:23:16.758Z,12.21
2019-02-17T10:25:46.576Z,12.24
2019-02-17T10:28:16.265Z,12.38
2019-02-17T10:30:46.132Z,12.38
2019-02-17T10:33:15.836Z,12.38
2019-02-17T10:35:45.647Z,12.40
2019-02-17T10:38:15.425Z,12.46
2019-02-17T10:40:45.442Z,12.58
2019-02-17T10:43:15.141Z,12.63
2019-02-17T10:45:44.831Z,12.64
2019-02-17T10:48:14.584Z,12.69
2019-02-17T10:50:44.471Z,12.77
2019-02-17T10:53:14.218Z,12.84
2019-02-17T10:55:44.025Z,12.92
2019-02-17T10:58:13.848Z,12.97
2019-02-17T11:00:44.016Z,12.97
2019-02-17T11:03:14.722Z,12.96
2019-02-17T11:05:44.724Z,13.06
2019-02-17T11:08:14.780Z,13.17
2019-02-17T11:10:44.790Z,13.19
2019-02-17T11:13:14.522Z,13.21
2019-02-17T11:15:44.354Z,13.25
2019-02-17T11:18:14.172Z,13.31
2019-02-17T11:20:44.038Z,13.33
2019-02-17T11:23:13.697Z,13.36
2019-02-17T11:25:43.630Z,13.47
2019-02-17T11:28:13.304Z,13.50
2019-02-17T11:30:43.054Z,13.68
2019-02-17T11:33:12.791Z,13.59
2019-02-17T11:35:42.645Z,13.71
2019-02-17T11:38:12.641Z,13.65
2019-02-17T11:40:42.389Z,13.68
2019-02-17T11:43:12.242Z,13.79
2019-02-17T11:45:42.174Z,13.85
2019-02-17T11:48:12.103Z,13.87
2019-02-17T11:50:41.831Z,13.98
2019-02-17T11:53:11.530Z,14.00
2019-02-17T11:55:41.227Z,14.05
2019-02-17T11:58:10.952Z,14.00
2019-02-17T12:00:40.627Z,14.01
2019-02-17T12:03:10.342Z,13.98
2019-02-17T12:05:40.095Z,14.01
2019-02-17T12:08:09.802Z,14.15
2019-02-17T12:10:39.457Z,14.19
2019-02-17T12:13:09.299Z,14.26
2019-02-17T12:15:38.963Z,14.38
2019-02-17T12:18:08.804Z,14.30
2019-02-17T12:20:38.215Z,14.29
2019-02-17T12:23:09.704Z,14.38
2019-02-17T12:25:41.103Z,14.41
2019-02-17T12:28:18.164Z,14.47
2019-02-17T12:30:49.630Z,14.51
2019-02-17T12:33:21.615Z,14.49
2019-02-17T12:35:50.782Z,14.50
2019-02-17T12:38:20.623Z,14.65
2019-02-17T12:40:50.439Z,14.69
2019-02-17T12:43:20.112Z,14.73
2019-02-17T12:45:50.214Z,14.79
2019-02-17T12:48:19.870Z,14.86
2019-02-17T12:50:49.771Z,14.85
2019-02-17T12:53:19.425Z,14.89
2019-02-17T12:55:49.200Z,14.99
2019-02-17T12:58:29.401Z,15.08
2019-02-17T13:00:50.737Z,15.20
2019-02-17T13:03:28.292Z,15.33
2019-02-17T13:05:52.006Z,15.41
2019-02-17T13:08:21.652Z,15.46
2019-02-17T13:10:51.332Z,15.55
2019-02-17T13:13:21.066Z,15.64
2019-02-17T13:15:50.744Z,15.80
2019-02-17T13:18:20.421Z,15.90
2019-02-17T13:20:50.125Z,16.00
2019-02-17T13:23:19.832Z,16.00
2019-02-17T13:25:49.872Z,16.09
2019-02-17T13:28:19.555Z,16.08
2019-02-17T13:30:49.353Z,16.13
2019-02-17T13:33:19.058Z,16.26
2019-02-17T13:35:48.820Z,16.38
2019-02-17T13:38:18.668Z,16.49
2019-02-17T13:40:48.346Z,16.58
2019-02-17T13:43:18.036Z,16.73
2019-02-17T13:45:47.740Z,16.75
2019-02-17T13:48:17.430Z,16.86
2019-02-17T13:50:47.256Z,17.02
2019-02-17T13:53:17.093Z,17.09
2019-02-17T13:55:47.132Z,17.36
2019-02-17T13:58:16.796Z,17.39
2019-02-17T14:00:47.005Z,17.49
2019-02-17T14:03:16.878Z,17.62
2019-02-17T14:05:46.630Z,17.73
2019-02-17T14:08:16.477Z,17.82
2019-02-17T14:10:46.312Z,17.83
2019-02-17T14:13:16.068Z,17.92
2019-02-17T14:15:45.846Z,17.93
2019-02-17T14:18:15.921Z,17.96
2019-02-17T14:20:45.649Z,17.89
2019-02-17T14:23:15.356Z,17.86
2019-02-17T14:25:45.117Z,17.76
2019-02-17T14:28:15.060Z,17.75
2019-02-17T14:30:44.833Z,17.61
2019-02-17T14:33:14.904Z,17.54
2019-02-17T14:35:47.754Z,17.53
2019-02-17T14:38:17.435Z,17.41
2019-02-17T14:40:47.483Z,17.36
2019-02-17T14:43:17.242Z,17.30
2019-02-17T14:45:46.942Z,17.20
2019-02-17T14:48:18.240Z,17.25
2019-02-17T14:50:48.247Z,17.11
2019-02-17T14:53:18.052Z,16.93
2019-02-17T14:55:48.019Z,16.78
2019-02-17T14:58:17.946Z,16.67
2019-02-17T15:00:47.616Z,16.54
2019-02-17T15:03:17.832Z,16.48
2019-02-17T15:05:47.577Z,16.38
2019-02-17T15:08:17.276Z,16.29
2019-02-17T21:53:31.417Z,10.14
2019-02-17T21:56:01.124Z,10.08
2019-02-17T21:58:30.827Z,10.10
2019-02-17T22:01:00.514Z,10.12
2019-02-17T22:03:30.225Z,10.15
2019-02-17T22:06:00.067Z,10.20
2019-02-17T22:08:29.737Z,10.17
2019-02-17T22:10:59.443Z,10.13
2019-02-17T22:13:29.131Z,10.14
2019-02-17T22:15:58.987Z,10.15
2019-02-17T22:18:29.823Z,10.13
2019-02-17T22:20:59.779Z,10.13
2019-02-17T22:23:29.439Z,10.12
2019-02-17T22:25:59.081Z,10.14
2019-02-17T22:28:28.838Z,10.13
2019-02-17T22:30:58.536Z,10.11
2019-02-17T22:33:28.213Z,10.11
2019-02-17T22:35:59.400Z,10.09
2019-02-17T22:38:29.083Z,10.08
2019-02-17T22:40:58.761Z,10.07
2019-02-17T22:43:28.469Z,10.04
2019-02-17T22:45:58.196Z,10.00
2019-02-17T22:48:27.891Z,9.96
2019-02-17T22:50:57.555Z,9.92
2019-02-17T22:53:27.241Z,9.90
2019-02-17T22:55:56.879Z,9.89
2019-02-17T22:58:26.581Z,9.87
2019-02-17T23:00:58.752Z,9.81
2019-02-17T23:03:30.323Z,9.76
2019-02-17T23:06:00.402Z,9.77
2019-02-17T23:08:30.274Z,9.75
2019-02-17T23:10:59.981Z,9.73
2019-02-17T23:13:29.710Z,9.73
2019-02-17T23:15:59.411Z,9.74
2019-02-17T23:18:29.532Z,9.68
2019-02-17T23:20:59.330Z,9.61
2019-02-17T23:23:29.052Z,9.62
2019-02-17T23:25:59.080Z,9.60
2019-02-17T23:28:28.744Z,9.59
2019-02-17T23:30:58.580Z,9.59
2019-02-17T23:33:28.282Z,9.62
2019-02-17T23:35:57.993Z,9.57
2019-02-17T23:38:27.728Z,9.56
2019-02-17T23:40:57.494Z,9.54
2019-02-17T23:43:27.471Z,9.53
2019-02-17T23:45:57.214Z,9.58
2019-02-17T23:48:27.056Z,9.54
2019-02-17T23:50:56.932Z,9.57
2019-02-17T23:53:26.792Z,9.52
2019-02-17T23:55:56.441Z,9.51
2019-02-17T23:58:26.284Z,9.47
